sensor_id;sensor_type;location;lat;lon;timestamp;pressure;altitude;pressure_sealevel;temperature;humidity
13604;BME280;24578;48.264;11.436;2024-01-30T00:02:55;97540.59;;;-2.90;100.00
13604;BME280;24578;48.264;11.436;2024-01-30T00:08:56;97543.94;;;-2.94;100.00
13604;BME280;24578;48.264;11.436;2024-01-30T00:14:58;97545.59;;;-3.02;100.00
13604;BME280;24578;48.264;11.436;2024-01-30T00:21:00;97549.00;;;-3.07;100.00
13604;BME280;24578;48.264;11.436;2024-01-30T00:27:01;97551.50;;;-3.13;100.00
13604;BME280;24578;48.264;11.436;2024-01-30T00:33:03;97552.34;;;-3.15;100.00
13604;BME280;24578;48.264;11.436;2024-01-30T00:39:05;97549.78;;;-3.18;100.00
13604;BME280;24578;48.264;11.436;2024-01-30T00:45:15;97557.38;;;-3.22;100.00
13604;BME280;24578;48.264;11.436;2024-01-30T00:51:16;97553.97;;;-3.24;100.00
13604;BME280;24578;48.264;11.436;2024-01-30T00:57:18;97559.91;;;-3.28;100.00
13604;BME280;24578;48.264;11.436;2024-01-30T01:03:20;97553.13;;;-3.30;100.00
13604;BME280;24578;48.264;11.436;2024-01-30T01:09:21;97553.13;;;-3.27;100.00
13604;BME280;24578;48.264;11.436;2024-01-30T01:15:23;97555.66;;;-3.32;100.00
13604;BME280;24578;48.264;11.436;2024-01-30T01:21:28;97556.50;;;-3.28;100.00
13604;BME280;24578;48.264;11.436;2024-01-30T01:27:29;97557.34;;;-3.31;100.00
13604;BME280;24578;48.264;11.436;2024-01-30T01:33:34;97551.41;;;-3.34;100.00
13604;BME280;24578;48.264;11.436;2024-01-30T01:39:38;97556.44;;;-3.39;100.00
13604;BME280;24578;48.264;11.436;2024-01-30T01:45:40;97551.38;;;-3.45;100.00
13604;BME280;24578;48.264;11.436;2024-01-30T01:51:42;97548.81;;;-3.53;100.00
13604;BME280;24578;48.264;11.436;2024-01-30T01:57:46;97554.69;;;-3.56;100.00
13604;BME280;24578;48.264;11.436;2024-01-30T02:03:48;97560.59;;;-3.58;100.00
13604;BME280;24578;48.264;11.436;2024-01-30T02:09:49;97546.25;;;-3.61;100.00
13604;BME280;24578;48.264;11.436;2024-01-30T02:15:51;97547.09;;;-3.57;100.00
13604;BME280;24578;48.264;11.436;2024-01-30T02:21:53;97545.41;;;-3.58;100.00
13604;BME280;24578;48.264;11.436;2024-01-30T02:27:55;97539.50;;;-3.62;100.00
13604;BME280;24578;48.264;11.436;2024-01-30T02:33:57;97547.91;;;-3.61;100.00
13604;BME280;24578;48.264;11.436;2024-01-30T02:39:59;97542.03;;;-3.62;100.00
13604;BME280;24578;48.264;11.436;2024-01-30T02:46:00;97535.22;;;-3.64;100.00
13604;BME280;24578;48.264;11.436;2024-01-30T02:52:02;97541.97;;;-3.70;100.00
13604;BME280;24578;48.264;11.436;2024-01-30T02:58:04;97539.47;;;-3.65;100.00
13604;BME280;24578;48.264;11.436;2024-01-30T03:04:06;97534.38;;;-3.68;100.00
13604;BME280;24578;48.264;11.436;2024-01-30T03:10:08;97536.91;;;-3.70;100.00
13604;BME280;24578;48.264;11.436;2024-01-30T03:16:09;97521.75;;;-3.67;100.00
13604;BME280;24578;48.264;11.436;2024-01-30T03:22:12;97525.94;;;-3.65;100.00
13604;BME280;24578;48.264;11.436;2024-01-30T03:28:26;97526.81;;;-3.67;100.00
13604;BME280;24578;48.264;11.436;2024-01-30T03:34:29;97515.00;;;-3.66;100.00
13604;BME280;24578;48.264;11.436;2024-01-30T03:40:31;97521.75;;;-3.67;100.00
13604;BME280;24578;48.264;11.436;2024-01-30T03:46:33;97504.88;;;-3.68;100.00
13604;BME280;24578;48.264;11.436;2024-01-30T03:52:34;97519.22;;;-3.63;100.00
13604;BME280;24578;48.264;11.436;2024-01-30T03:58:36;97519.22;;;-3.67;100.00
13604;BME280;24578;48.264;11.436;2024-01-30T04:04:38;97515.84;;;-3.69;100.00
13604;BME280;24578;48.264;11.436;2024-01-30T04:10:39;97509.91;;;-3.71;100.00
13604;BME280;24578;48.264;11.436;2024-01-30T04:16:41;97515.78;;;-3.73;100.00
13604;BME280;24578;48.264;11.436;2024-01-30T04:22:43;97521.72;;;-3.73;100.00
13604;BME280;24578;48.264;11.436;2024-01-30T04:28:47;97529.31;;;-3.73;100.00
13604;BME280;24578;48.264;11.436;2024-01-30T04:34:49;97521.75;;;-3.67;100.00
13604;BME280;24578;48.264;11.436;2024-01-30T04:40:51;97516.66;;;-3.68;100.00
13604;BME280;24578;48.264;11.436;2024-01-30T04:46:52;97519.25;;;-3.59;100.00
13604;BME280;24578;48.264;11.436;2024-01-30T04:52:54;97515.84;;;-3.58;100.00
13604;BME280;24578;48.264;11.436;2024-01-30T04:58:56;97529.38;;;-3.57;100.00
13604;BME280;24578;48.264;11.436;2024-01-30T05:04:57;97523.47;;;-3.59;100.00
13604;BME280;24578;48.264;11.436;2024-01-30T05:11:00;97531.88;;;-3.67;100.00
13604;BME280;24578;48.264;11.436;2024-01-30T05:17:03;97536.91;;;-3.73;100.00
13604;BME280;24578;48.264;11.436;2024-01-30T05:23:05;97531.81;;;-3.77;100.00
13604;BME280;24578;48.264;11.436;2024-01-30T05:29:06;97525.03;;;-3.83;100.00
13604;BME280;24578;48.264;11.436;2024-01-30T05:35:09;97531.78;;;-3.85;100.00
13604;BME280;24578;48.264;11.436;2024-01-30T05:41:12;97532.59;;;-3.91;100.00
13604;BME280;24578;48.264;11.436;2024-01-30T05:47:14;97534.22;;;-3.96;100.00
13604;BME280;24578;48.264;11.436;2024-01-30T05:53:17;97538.50;;;-3.87;100.00
13604;BME280;24578;48.264;11.436;2024-01-30T05:59:18;97545.28;;;-3.83;100.00
13604;BME280;24578;48.264;11.436;2024-01-30T06:05:20;97545.22;;;-3.89;100.00
13604;BME280;24578;48.264;11.436;2024-01-30T06:11:22;97539.31;;;-3.91;100.00
13604;BME280;24578;48.264;11.436;2024-01-30T06:17:23;97541.00;;;-3.90;100.00
13604;BME280;24578;48.264;11.436;2024-01-30T06:23:25;97549.47;;;-3.90;100.00
13604;BME280;24578;48.264;11.436;2024-01-30T06:29:26;97559.59;;;-3.85;100.00
13604;BME280;24578;48.264;11.436;2024-01-30T06:35:28;97565.50;;;-3.86;100.00
13604;BME280;24578;48.264;11.436;2024-01-30T06:41:30;97565.53;;;-3.83;100.00
13604;BME280;24578;48.264;11.436;2024-01-30T06:47:32;97564.69;;;-3.80;100.00
13604;BME280;24578;48.264;11.436;2024-01-30T06:53:33;97561.34;;;-3.76;100.00
13604;BME280;24578;48.264;11.436;2024-01-30T06:59:35;97572.34;;;-3.70;100.00
13604;BME280;24578;48.264;11.436;2024-01-30T07:05:37;97570.72;;;-3.58;100.00
13604;BME280;24578;48.264;11.436;2024-01-30T07:11:38;97569.91;;;-3.48;100.00
13604;BME280;24578;48.264;11.436;2024-01-30T07:17:40;97569.13;;;-3.34;100.00
13604;BME280;24578;48.264;11.436;2024-01-30T07:23:42;97575.94;;;-3.18;100.00
13604;BME280;24578;48.264;11.436;2024-01-30T07:29:44;97569.28;;;-3.02;100.00
13604;BME280;24578;48.264;11.436;2024-01-30T07:35:46;97576.06;;;-2.84;100.00
13604;BME280;24578;48.264;11.436;2024-01-30T07:41:48;97576.16;;;-2.47;100.00
13604;BME280;24578;48.264;11.436;2024-01-30T07:47:50;97582.09;;;-2.06;100.00
13604;BME280;24578;48.264;11.436;2024-01-30T07:53:52;97583.75;;;-1.66;100.00
13604;BME280;24578;48.264;11.436;2024-01-30T07:59:53;97587.00;;;-1.17;100.00
13604;BME280;24578;48.264;11.436;2024-01-30T08:05:56;97584.19;;;-0.68;100.00
13604;BME280;24578;48.264;11.436;2024-01-30T08:11:59;97581.16;;;0.02;100.00
13604;BME280;24578;48.264;11.436;2024-01-30T08:18:00;97588.94;;;0.75;100.00
13604;BME280;24578;48.264;11.436;2024-01-30T08:24:05;97580.31;;;1.51;100.00
13604;BME280;24578;48.264;11.436;2024-01-30T08:30:08;97572.19;;;2.34;100.00
13604;BME280;24578;48.264;11.436;2024-01-30T08:36:10;97577.50;;;3.13;100.00
13604;BME280;24578;48.264;11.436;2024-01-30T08:42:12;97573.13;;;3.93;100.00
13604;BME280;24578;48.264;11.436;2024-01-30T08:48:14;97571.91;;;5.36;100.00
13604;BME280;24578;48.264;11.436;2024-01-30T08:54:16;97562.34;;;8.71;100.00
13604;BME280;24578;48.264;11.436;2024-01-30T09:00:17;97549.72;;;11.33;78.55
13604;BME280;24578;48.264;11.436;2024-01-30T09:06:20;97551.00;;;12.93;60.52
13604;BME280;24578;48.264;11.436;2024-01-30T09:12:22;97557.25;;;14.01;46.33
13604;BME280;24578;48.264;11.436;2024-01-30T09:18:23;97556.72;;;15.51;44.97
13604;BME280;24578;48.264;11.436;2024-01-30T09:24:26;97552.78;;;15.70;40.69
13604;BME280;24578;48.264;11.436;2024-01-30T09:30:28;97560.22;;;15.63;39.87
13604;BME280;24578;48.264;11.436;2024-01-30T09:36:32;97554.06;;;16.13;39.46
13604;BME280;24578;48.264;11.436;2024-01-30T09:42:35;97560.50;;;16.79;37.27
13604;BME280;24578;48.264;11.436;2024-01-30T09:48:37;97556.63;;;16.96;37.63
13604;BME280;24578;48.264;11.436;2024-01-30T09:54:40;97550.88;;;17.36;37.28
13604;BME280;24578;48.264;11.436;2024-01-30T10:00:42;97555.00;;;17.61;36.45
13604;BME280;24578;48.264;11.436;2024-01-30T10:06:49;97551.78;;;17.90;35.49
13604;BME280;24578;48.264;11.436;2024-01-30T10:12:52;97542.47;;;18.30;35.01
13604;BME280;24578;48.264;11.436;2024-01-30T10:18:54;97542.53;;;18.40;34.34
13604;BME280;24578;48.264;11.436;2024-01-30T10:24:55;97539.44;;;18.56;33.63
13604;BME280;24578;48.264;11.436;2024-01-30T10:30:58;97531.31;;;19.11;32.68
13604;BME280;24578;48.264;11.436;2024-01-30T10:37:10;97520.34;;;19.57;31.37
13604;BME280;24578;48.264;11.436;2024-01-30T10:43:21;97505.03;;;19.62;32.33
13604;BME280;24578;48.264;11.436;2024-01-30T10:49:24;97499.09;;;20.09;31.50
13604;BME280;24578;48.264;11.436;2024-01-30T10:55:28;97492.31;;;19.97;30.95
13604;BME280;24578;48.264;11.436;2024-01-30T11:01:31;97484.16;;;19.51;31.52
13604;BME280;24578;48.264;11.436;2024-01-30T11:07:33;97477.34;;;17.72;33.94
13604;BME280;24578;48.264;11.436;2024-01-30T11:13:35;97488.09;;;15.38;36.58
13604;BME280;24578;48.264;11.436;2024-01-30T11:19:36;97486.78;;;15.19;36.50
13604;BME280;24578;48.264;11.436;2024-01-30T11:25:38;97476.44;;;15.31;36.25
13604;BME280;24578;48.264;11.436;2024-01-30T11:31:40;97478.19;;;16.03;37.08
13604;BME280;24578;48.264;11.436;2024-01-30T11:37:42;97471.13;;;16.51;35.80
13604;BME280;24578;48.264;11.436;2024-01-30T11:43:53;97458.47;;;17.24;34.26
13604;BME280;24578;48.264;11.436;2024-01-30T11:49:57;97451.72;;;17.54;33.59
13604;BME280;24578;48.264;11.436;2024-01-30T11:56:01;97448.53;;;17.18;35.30
13604;BME280;24578;48.264;11.436;2024-01-30T12:02:05;97449.03;;;16.55;35.79
13604;BME280;24578;48.264;11.436;2024-01-30T12:08:15;97438.06;;;17.07;35.51
13604;BME280;24578;48.264;11.436;2024-01-30T12:14:18;97429.06;;;17.43;34.94
13604;BME280;24578;48.264;11.436;2024-01-30T12:20:20;97434.72;;;16.02;36.61
13604;BME280;24578;48.264;11.436;2024-01-30T12:26:24;97428.97;;;15.01;38.93
13604;BME280;24578;48.264;11.436;2024-01-30T12:32:29;97420.53;;;14.48;40.73
13604;BME280;24578;48.264;11.436;2024-01-30T12:38:31;97415.50;;;14.57;40.42
13604;BME280;24578;48.264;11.436;2024-01-30T12:44:33;97415.50;;;14.57;42.27
13604;BME280;24578;48.264;11.436;2024-01-30T12:50:36;97410.38;;;15.55;41.42
13604;BME280;24578;48.264;11.436;2024-01-30T12:56:38;97396.28;;;16.50;40.17
13604;BME280;24578;48.264;11.436;2024-01-30T13:02:39;97402.94;;;16.08;41.34
13604;BME280;24578;48.264;11.436;2024-01-30T13:08:41;97399.25;;;16.79;39.94
13604;BME280;24578;48.264;11.436;2024-01-30T13:14:43;97393.44;;;16.53;37.64
13604;BME280;24578;48.264;11.436;2024-01-30T13:20:44;97410.66;;;16.21;39.19
13604;BME280;24578;48.264;11.436;2024-01-30T13:26:46;97406.41;;;15.84;40.14
13604;BME280;24578;48.264;11.436;2024-01-30T13:32:47;97414.31;;;14.87;41.82
13604;BME280;24578;48.264;11.436;2024-01-30T13:38:50;97409.19;;;14.10;43.84
13604;BME280;24578;48.264;11.436;2024-01-30T13:44:51;97409.28;;;13.95;43.99
13604;BME280;24578;48.264;11.436;2024-01-30T13:50:53;97418.00;;;13.68;45.62
13604;BME280;24578;48.264;11.436;2024-01-30T13:56:56;97424.34;;;13.64;46.43
13604;BME280;24578;48.264;11.436;2024-01-30T14:02:58;97416.84;;;13.47;47.78
13604;BME280;24578;48.264;11.436;2024-01-30T14:09:00;97427.78;;;13.37;48.58
13604;BME280;24578;48.264;11.436;2024-01-30T14:15:10;97420.91;;;12.82;51.56
13604;BME280;24578;48.264;11.436;2024-01-30T14:21:27;97422.53;;;12.41;51.90
13604;BME280;24578;48.264;11.436;2024-01-30T14:27:30;97437.25;;;12.11;53.61
13604;BME280;24578;48.264;11.436;2024-01-30T14:33:31;97435.69;;;12.09;54.39
13604;BME280;24578;48.264;11.436;2024-01-30T14:39:33;97435.81;;;11.91;54.70
13604;BME280;24578;48.264;11.436;2024-01-30T14:45:35;97441.97;;;11.60;57.53
13604;BME280;24578;48.264;11.436;2024-01-30T14:51:37;97443.16;;;11.38;59.29
13604;BME280;24578;48.264;11.436;2024-01-30T14:57:39;97441.81;;;11.31;61.61
13604;BME280;24578;48.264;11.436;2024-01-30T15:03:44;97445.09;;;11.34;62.62
13604;BME280;24578;48.264;11.436;2024-01-30T15:09:46;97449.03;;;11.25;63.72
13604;BME280;24578;48.264;11.436;2024-01-30T15:15:48;97452.38;;;11.11;66.83
13604;BME280;24578;48.264;11.436;2024-01-30T15:21:49;97460.66;;;10.86;68.33
13604;BME280;24578;48.264;11.436;2024-01-30T15:27:51;97453.84;;;10.51;71.46
13604;BME280;24578;48.264;11.436;2024-01-30T15:33:52;97467.72;;;10.33;73.59
13604;BME280;24578;48.264;11.436;2024-01-30T15:39:54;97475.59;;;9.96;79.47
13604;BME280;24578;48.264;11.436;2024-01-30T15:45:59;97467.53;;;9.50;83.54
13604;BME280;24578;48.264;11.436;2024-01-30T15:52:02;97472.13;;;9.06;87.98
13604;BME280;24578;48.264;11.436;2024-01-30T15:58:04;97485.84;;;8.49;92.87
13604;BME280;24578;48.264;11.436;2024-01-30T16:04:07;97499.88;;;8.02;99.56
13604;BME280;24578;48.264;11.436;2024-01-30T16:10:11;97496.50;;;7.57;100.00
13604;BME280;24578;48.264;11.436;2024-01-30T16:16:17;97504.34;;;7.10;100.00
13604;BME280;24578;48.264;11.436;2024-01-30T16:22:19;97510.09;;;6.70;100.00
13604;BME280;24578;48.264;11.436;2024-01-30T16:28:25;97524.25;;;6.33;100.00
13604;BME280;24578;48.264;11.436;2024-01-30T16:34:30;97526.31;;;5.97;100.00
13604;BME280;24578;48.264;11.436;2024-01-30T16:40:32;97537.44;;;5.70;100.00
13604;BME280;24578;48.264;11.436;2024-01-30T16:46:37;97546.94;;;5.40;100.00
13604;BME280;24578;48.264;11.436;2024-01-30T16:52:42;97547.00;;;5.08;100.00
13604;BME280;24578;48.264;11.436;2024-01-30T16:58:44;97556.25;;;4.84;100.00
13604;BME280;24578;48.264;11.436;2024-01-30T17:04:46;97562.28;;;4.51;100.00
13604;BME280;24578;48.264;11.436;2024-01-30T17:10:47;97563.81;;;4.25;100.00
13604;BME280;24578;48.264;11.436;2024-01-30T17:16:49;97570.19;;;4.09;100.00
13604;BME280;24578;48.264;11.436;2024-01-30T17:23:03;97568.97;;;3.89;100.00
13604;BME280;24578;48.264;11.436;2024-01-30T17:29:10;97578.91;;;3.65;100.00
13604;BME280;24578;48.264;11.436;2024-01-30T17:35:12;97575.19;;;3.41;100.00
13604;BME280;24578;48.264;11.436;2024-01-30T17:41:16;97574.66;;;3.27;100.00
13604;BME280;24578;48.264;11.436;2024-01-30T17:47:17;97596.38;;;3.07;100.00
13604;BME280;24578;48.264;11.436;2024-01-30T17:53:20;97594.13;;;2.90;100.00
13604;BME280;24578;48.264;11.436;2024-01-30T17:59:22;97596.13;;;2.76;100.00
13604;BME280;24578;48.264;11.436;2024-01-30T18:05:26;97597.22;;;2.64;100.00
13604;BME280;24578;48.264;11.436;2024-01-30T18:11:28;97592.25;;;2.56;100.00
13604;BME280;24578;48.264;11.436;2024-01-30T18:17:29;97595.94;;;2.39;100.00
13604;BME280;24578;48.264;11.436;2024-01-30T18:23:31;97606.44;;;2.24;100.00
13604;BME280;24578;48.264;11.436;2024-01-30T18:29:32;97605.84;;;2.08;100.00
13604;BME280;24578;48.264;11.436;2024-01-30T18:35:36;97613.66;;;1.97;100.00
13604;BME280;24578;48.264;11.436;2024-01-30T18:41:38;97616.41;;;1.86;100.00
13604;BME280;24578;48.264;11.436;2024-01-30T18:47:39;97612.28;;;1.77;100.00
13604;BME280;24578;48.264;11.436;2024-01-30T18:53:43;97617.44;;;1.73;100.00
13604;BME280;24578;48.264;11.436;2024-01-30T18:59:45;97618.38;;;1.67;100.00
13604;BME280;24578;48.264;11.436;2024-01-30T19:05:47;97622.66;;;1.65;100.00
13604;BME280;24578;48.264;11.436;2024-01-30T19:11:49;97616.72;;;1.64;100.00
13604;BME280;24578;48.264;11.436;2024-01-30T19:17:51;97619.31;;;1.61;100.00
13604;BME280;24578;48.264;11.436;2024-01-30T19:23:54;97613.47;;;1.53;100.00
13604;BME280;24578;48.264;11.436;2024-01-30T19:30:01;97627.97;;;1.51;100.00
13604;BME280;24578;48.264;11.436;2024-01-30T19:36:03;97631.38;;;1.48;100.00
13604;BME280;24578;48.264;11.436;2024-01-30T19:42:05;97628.09;;;1.40;100.00
13604;BME280;24578;48.264;11.436;2024-01-30T19:48:07;97635.81;;;1.35;100.00
13604;BME280;24578;48.264;11.436;2024-01-30T19:54:11;97640.13;;;1.32;100.00
13604;BME280;24578;48.264;11.436;2024-01-30T20:00:19;97643.28;;;1.49;100.00
13604;BME280;24578;48.264;11.436;2024-01-30T20:06:23;97647.47;;;1.54;100.00
13604;BME280;24578;48.264;11.436;2024-01-30T20:12:25;97651.09;;;1.39;100.00
13604;BME280;24578;48.264;11.436;2024-01-30T20:18:30;97659.63;;;1.36;100.00
13604;BME280;24578;48.264;11.436;2024-01-30T20:24:33;97656.06;;;1.48;100.00
13604;BME280;24578;48.264;11.436;2024-01-30T20:30:37;97662.78;;;1.55;100.00
13604;BME280;24578;48.264;11.436;2024-01-30T20:36:41;97671.31;;;1.52;100.00
13604;BME280;24578;48.264;11.436;2024-01-30T20:42:46;97674.78;;;1.50;100.00
13604;BME280;24578;48.264;11.436;2024-01-30T20:48:51;97677.28;;;1.51;100.00
13604;BME280;24578;48.264;11.436;2024-01-30T20:54:54;97674.72;;;1.53;100.00
13604;BME280;24578;48.264;11.436;2024-01-30T21:00:56;97663.59;;;1.59;100.00
13604;BME280;24578;48.264;11.436;2024-01-30T21:06:58;97667.03;;;1.55;100.00
13604;BME280;24578;48.264;11.436;2024-01-30T21:12:59;97674.78;;;1.50;100.00
13604;BME280;24578;48.264;11.436;2024-01-30T21:19:01;97672.91;;;1.63;100.00
13604;BME280;24578;48.264;11.436;2024-01-30T21:25:03;97668.44;;;1.76;100.00
13604;BME280;24578;48.264;11.436;2024-01-30T21:31:08;97681.22;;;1.76;100.00
13604;BME280;24578;48.264;11.436;2024-01-30T21:37:10;97665.97;;;1.71;100.00
13604;BME280;24578;48.264;11.436;2024-01-30T21:43:12;97667.72;;;1.67;100.00
13604;BME280;24578;48.264;11.436;2024-01-30T21:49:14;97676.22;;;1.68;100.00
13604;BME280;24578;48.264;11.436;2024-01-30T21:55:18;97665.22;;;1.64;100.00
13604;BME280;24578;48.264;11.436;2024-01-30T22:01:19;97669.44;;;1.67;100.00
13604;BME280;24578;48.264;11.436;2024-01-30T22:07:21;97676.25;;;1.66;100.00
13604;BME280;24578;48.264;11.436;2024-01-30T22:13:24;97677.97;;;1.64;100.00
13604;BME280;24578;48.264;11.436;2024-01-30T22:19:27;97681.47;;;1.57;100.00
13604;BME280;24578;48.264;11.436;2024-01-30T22:25:29;97689.94;;;1.61;100.00
13604;BME280;24578;48.264;11.436;2024-01-30T22:31:33;97692.41;;;1.67;100.00
13604;BME280;24578;48.264;11.436;2024-01-30T22:37:39;97688.94;;;1.71;100.00
13604;BME280;24578;48.264;11.436;2024-01-30T22:43:44;97684.66;;;1.72;100.00
13604;BME280;24578;48.264;11.436;2024-01-30T22:49:46;97679.56;;;1.73;100.00
13604;BME280;24578;48.264;11.436;2024-01-30T22:55:48;97684.66;;;1.73;100.00
13604;BME280;24578;48.264;11.436;2024-01-30T23:01:49;97683.78;;;1.76;100.00
13604;BME280;24578;48.264;11.436;2024-01-30T23:07:55;97680.44;;;1.72;100.00
13604;BME280;24578;48.264;11.436;2024-01-30T23:13:57;97688.91;;;1.73;100.00
13604;BME280;24578;48.264;11.436;2024-01-30T23:19:59;97687.25;;;1.70;100.00
13604;BME280;24578;48.264;11.436;2024-01-30T23:26:01;97681.34;;;1.65;100.00
13604;BME280;24578;48.264;11.436;2024-01-30T23:32:05;97690.81;;;1.58;100.00
13604;BME280;24578;48.264;11.436;2024-01-30T23:38:07;97688.38;;;1.49;100.00
13604;BME280;24578;48.264;11.436;2024-01-30T23:44:17;97692.72;;;1.42;100.00
13604;BME280;24578;48.264;11.436;2024-01-30T23:50:18;97697.84;;;1.42;100.00
13604;BME280;24578;48.264;11.436;2024-01-30T23:56:20;97703.63;;;1.54;100.00
